Time;durP1;ratioP1;P1;durP2;ratioP2;P2;SDS_P1;SDS_P2;PMS_P1;PMS_P2;Temp;Humidity;BMP_temperature;BMP_pressure;BME280_temperature;BME280_humidity;BME280_pressure;Samples;Min_cycle;Max_cycle;Signal;HPM_P1;HPM_P2
2022/01/30 00:02:18;;;;;;;17.20;9.80;;;;;;;-5.92;72.39;97439.23;110229;1247;60071;-67
2022/01/30 00:04:47;;;;;;;18.20;10.30;;;;;;;-5.88;72.20;97434.25;110340;1247;59681;-65
2022/01/30 00:07:16;;;;;;;38.30;22.30;;;;;;;-5.84;72.62;97432.53;110338;1247;72671;-66
2022/01/30 00:09:48;;;;;;;26.20;21.80;;;;;;;-5.82;72.68;97428.77;110154;1247;67818;-66
2022/01/30 00:12:23;;;;;;;24.20;17.40;;;;;;;-5.80;72.44;97424.87;110229;1247;68649;-66
2022/01/30 00:14:53;;;;;;;19.00;14.70;;;;;;;-5.78;72.38;97425.35;110140;1248;59676;-68
2022/01/30 00:17:30;;;;;;;26.20;15.20;;;;;;;-5.75;72.22;97424.98;110372;1247;59714;-66
2022/01/30 00:20:04;;;;;;;13.90;9.20;;;;;;;-5.71;71.44;97415.79;110170;1247;70575;-68
2022/01/30 00:22:44;;;;;;;10.90;6.40;;;;;;;-5.69;71.11;97414.91;109929;1248;69059;-67
2022/01/30 00:25:17;;;;;;;15.60;8.90;;;;;;;-5.66;70.97;97423.73;110355;1245;70125;-67
2022/01/30 00:28:00;;;;;;;11.00;7.00;;;;;;;-5.64;71.40;97432.37;110373;1247;59723;-68
2022/01/30 00:30:34;;;;;;;26.30;16.50;;;;;;;-5.59;71.50;97437.59;110444;1247;59687;-66
2022/01/30 00:33:04;;;;;;;17.50;12.80;;;;;;;-5.57;72.27;97434.35;110552;1247;71520;-67
2022/01/30 00:35:38;;;;;;;14.50;11.10;;;;;;;-5.55;72.48;97429.23;110247;1247;68608;-68
2022/01/30 00:38:14;;;;;;;21.30;12.90;;;;;;;-5.53;72.50;97419.21;110388;1247;69406;-67
2022/01/30 00:40:48;;;;;;;25.80;17.70;;;;;;;-5.51;71.56;97410.85;110299;1247;59738;-67
2022/01/30 00:43:19;;;;;;;40.70;25.00;;;;;;;-5.51;71.15;97405.77;110222;1247;59678;-65
2022/01/30 00:45:49;;;;;;;33.50;21.00;;;;;;;-5.54;71.16;97394.92;109996;1247;70803;-66
2022/01/30 00:48:19;;;;;;;46.00;31.70;;;;;;;-5.57;71.46;97385.45;110068;1247;68705;-66
2022/01/30 00:50:51;;;;;;;47.90;30.50;;;;;;;-5.59;71.52;97375.79;110097;1247;68577;-66
2022/01/30 00:53:21;;;;;;;43.80;25.20;;;;;;;-5.60;71.41;97370.35;110065;1247;59679;-66
2022/01/30 00:55:50;;;;;;;40.70;24.90;;;;;;;-5.60;71.55;97360.50;110313;1247;59738;-67
2022/01/30 00:58:20;;;;;;;56.70;31.90;;;;;;;-5.61;71.88;97348.63;110287;1247;71567;-67
2022/01/30 01:00:50;;;;;;;37.70;21.50;;;;;;;-5.61;72.11;97339.81;109988;1248;67686;-67
2022/01/30 01:03:20;;;;;;;20.50;14.40;;;;;;;-5.60;72.18;97335.04;110169;1247;68629;-66
2022/01/30 01:05:51;;;;;;;;;;;;;;;-5.56;72.92;97336.52;110029;1248;59753;-66
2022/01/30 01:08:35;;;;;;;17.00;11.60;;;;;;;-5.53;73.14;97336.66;110140;1247;59732;-66
2022/01/30 01:11:55;;;;;;;23.60;16.10;;;;;;;-5.50;72.92;97329.33;110396;1247;70749;-66
2022/01/30 01:20:53;;;;;;;32.90;21.60;;;;;;;-5.48;73.00;97330.16;110119;1247;69191;-65
2022/01/30 01:25:23;;;;;;;22.30;14.90;;;;;;;-5.35;72.95;97296.72;110028;1250;70566;-66
2022/01/30 01:27:53;;;;;;;41.20;26.00;;;;;;;-5.31;72.30;97288.36;110294;1247;68322;-65
2022/01/30 01:30:22;;;;;;;27.70;22.00;;;;;;;-5.29;72.53;97287.65;110114;1247;68858;-65
2022/01/30 01:32:52;;;;;;;69.90;39.70;;;;;;;-5.27;72.78;97278.96;109980;1248;59721;-66
2022/01/30 01:35:21;;;;;;;27.40;19.20;;;;;;;-5.25;72.85;97260.75;110089;1247;59710;-66
2022/01/30 01:37:54;;;;;;;33.20;21.40;;;;;;;-5.22;72.39;97250.86;110098;1248;71537;-66
2022/01/30 01:40:25;;;;;;;42.00;27.10;;;;;;;-5.21;72.25;97242.02;110371;1247;68682;-66
2022/01/30 01:42:55;;;;;;;;;;;;;;;-5.22;72.74;97229.80;110159;1246;68607;-65
2022/01/30 01:45:26;;;;;;;24.80;16.60;;;;;;;-5.22;72.44;97215.52;110213;1248;59671;-66
2022/01/30 01:47:59;;;;;;;25.70;16.20;;;;;;;-5.22;72.45;97201.42;110432;1247;59773;-66
2022/01/30 01:50:39;;;;;;;29.10;18.50;;;;;;;-5.22;73.07;97190.55;110115;1248;70845;-65
2022/01/30 01:53:14;;;;;;;39.50;23.20;;;;;;;-5.22;72.68;97177.81;110139;1247;66651;-66
2022/01/30 01:55:44;;;;;;;39.70;25.10;;;;;;;-5.23;72.97;97169.83;110224;1247;67822;-65
2022/01/30 01:58:22;;;;;;;28.50;19.60;;;;;;;-5.25;74.07;97163.74;110070;1248;59729;-66
2022/01/30 02:01:24;;;;;;;20.90;13.30;;;;;;;-5.25;74.08;97157.45;109573;1251;60276;-65
2022/01/30 02:03:54;;;;;;;17.60;11.70;;;;;;;-5.21;74.03;97152.30;110369;1247;71517;-66
2022/01/30 02:06:26;;;;;;;;;;;;;;;-5.18;74.01;97147.32;110233;1246;68594;-66
2022/01/30 02:09:07;;;;;;;23.10;14.10;;;;;;;-5.16;74.03;97144.41;109815;1251;69430;-66
2022/01/30 02:11:41;;;;;;;26.00;15.30;;;;;;;-5.12;74.20;97137.05;110111;1247;59732;-66
2022/01/30 02:14:29;;;;;;;13.10;9.90;;;;;;;-5.09;74.22;97134.62;110091;1247;59701;-66
2022/01/30 02:28:08;;;;;;;16.80;10.30;;;;;;;-4.85;75.18;97122.85;110409;1244;59679;-66
2022/01/30 02:30:45;;;;;;;11.00;8.00;;;;;;;-4.79;74.01;97115.09;109942;1250;70891;-66
2022/01/30 02:33:15;;;;;;;11.60;8.20;;;;;;;-4.73;74.31;97100.72;109981;1248;68574;-65
2022/01/30 02:35:44;;;;;;;21.20;12.20;;;;;;;-4.69;73.72;97080.41;110392;1247;68747;-66
2022/01/30 02:38:16;;;;;;;26.20;14.90;;;;;;;-4.62;73.93;97064.98;109965;1247;59872;-66
2022/01/30 02:40:48;;;;;;;21.50;13.50;;;;;;;-4.62;73.93;97061.23;110119;1247;59666;-68
2022/01/30 02:43:23;;;;;;;24.30;14.30;;;;;;;-4.61;74.13;97059.87;110625;1246;70852;-67
2022/01/30 02:46:22;;;;;;;15.30;9.60;;;;;;;-4.58;73.81;97060.67;109909;1250;67884;-65
2022/01/30 02:48:56;;;;;;;10.80;7.80;;;;;;;-4.49;74.60;97050.29;110183;1248;69320;-68
2022/01/30 02:51:34;;;;;;;15.40;8.70;;;;;;;-4.40;74.99;97032.09;110150;1247;59755;-65
2022/01/30 02:54:05;;;;;;;20.40;11.50;;;;;;;-4.34;75.05;97017.67;110203;1247;60073;-68
2022/01/30 02:56:37;;;;;;;18.60;12.10;;;;;;;-4.29;75.24;97002.60;110295;1244;71542;-67
2022/01/30 02:59:08;;;;;;;30.20;17.10;;;;;;;-4.23;75.51;96999.07;110182;1247;68717;-67
2022/01/30 03:01:39;;;;;;;23.20;12.90;;;;;;;-4.24;75.51;97006.74;110192;1247;69394;-65
2022/01/30 03:04:09;;;;;;;14.50;9.40;;;;;;;-4.25;75.65;96989.58;110188;1247;59689;-66
2022/01/30 03:06:39;;;;;;;20.90;12.70;;;;;;;-4.22;75.79;96980.32;110026;1248;59747;-65
2022/01/30 03:09:15;;;;;;;21.90;12.40;;;;;;;-4.21;75.67;96981.14;109947;1248;71509;-66
2022/01/30 03:11:44;;;;;;;17.90;10.40;;;;;;;-4.19;75.81;96975.83;110104;1248;68635;-66
2022/01/30 03:14:14;;;;;;;12.70;9.20;;;;;;;-4.18;75.95;96971.90;110120;1247;69429;-65
2022/01/30 03:16:44;;;;;;;15.40;10.50;;;;;;;-4.15;76.44;96966.39;110055;1248;59773;-66
2022/01/30 03:19:14;;;;;;;13.40;8.90;;;;;;;-4.12;76.32;96963.08;109949;1247;59699;-66
2022/01/30 03:21:45;;;;;;;14.00;9.30;;;;;;;-4.09;76.43;96954.86;110272;1246;71352;-65
2022/01/30 03:24:15;;;;;;;15.30;9.60;;;;;;;-4.07;76.42;96944.61;109878;1251;68643;-65
2022/01/30 03:26:45;;;;;;;;;;;;;;;-4.05;76.43;96944.40;110105;1246;68361;-65
2022/01/30 03:29:27;;;;;;;15.60;9.50;;;;;;;-4.02;76.65;96934.09;110263;1247;59707;-65
2022/01/30 03:31:57;;;;;;;15.20;9.10;;;;;;;-4.00;76.98;96928.44;110047;1248;59755;-65
2022/01/30 03:34:28;;;;;;;14.70;8.80;;;;;;;-3.96;77.23;96931.77;110134;1248;70900;-65
2022/01/30 03:36:58;;;;;;;10.80;7.90;;;;;;;-3.89;77.34;96932.29;110173;1247;68568;-65
2022/01/30 03:39:30;;;;;;;14.70;8.30;;;;;;;-3.88;77.49;96927.65;110146;1247;69368;-66
2022/01/30 03:42:01;;;;;;;13.30;8.90;;;;;;;-3.85;77.50;96929.30;110083;1247;59757;-66
2022/01/30 03:44:31;;;;;;;13.10;8.20;;;;;;;-3.83;77.42;96933.00;110072;1247;59720;-66
2022/01/30 03:47:02;;;;;;;12.80;8.20;;;;;;;-3.79;77.55;96928.80;110120;1247;71636;-66
2022/01/30 03:49:34;;;;;;;11.90;8.30;;;;;;;-3.77;77.48;96923.30;110118;1247;68424;-65
2022/01/30 03:52:04;;;;;;;11.60;8.40;;;;;;;-3.75;77.58;96913.55;110297;1245;69451;-66
2022/01/30 03:54:35;;;;;;;11.20;7.80;;;;;;;-3.76;77.66;96902.00;110091;1247;59746;-66
2022/01/30 03:57:06;;;;;;;10.50;7.40;;;;;;;-3.76;77.32;96895.02;110037;1248;59739;-66
2022/01/30 03:59:37;;;;;;;11.00;8.10;;;;;;;-3.75;77.46;96893.11;110092;1247;71546;-66
2022/01/30 04:02:07;;;;;;;;;;;;;;;-3.74;77.12;96883.05;110077;1248;67831;-65
2022/01/30 04:04:37;;;;;;;12.30;7.70;;;;;;;-3.73;77.23;96879.09;110409;1247;69490;-65
2022/01/30 04:07:08;;;;;;;14.90;7.80;;;;;;;-3.74;77.23;96878.95;110283;1244;60193;-66
2022/01/30 04:10:07;;;;;;;10.00;6.60;;;;;;;-3.74;77.10;96871.98;110330;1247;60024;-66
2022/01/30 04:12:47;;;;;;;14.20;8.80;;;;;;;-3.75;77.33;96855.81;110512;1246;70804;-66
2022/01/30 04:15:35;;;;;;;12.60;7.40;;;;;;;-3.77;77.38;96853.67;110415;1246;68058;-66
2022/01/30 04:18:19;;;;;;;13.60;8.30;;;;;;;-3.78;77.26;96841.62;110384;1247;68452;-66
2022/01/30 04:21:07;;;;;;;11.90;7.90;;;;;;;-3.80;77.57;96843.52;110122;1247;59738;-65
2022/01/30 04:23:57;;;;;;;12.40;6.00;;;;;;;-3.80;77.29;96842.66;109840;1248;59668;-66
2022/01/30 04:26:38;;;;;;;13.10;9.30;;;;;;;-3.80;77.53;96847.42;110227;1245;72275;-66
2022/01/30 04:29:19;;;;;;;;;;;;;;;-3.80;77.49;96846.75;110409;1247;67851;-65
2022/01/30 04:32:02;;;;;;;10.60;7.30;;;;;;;-3.79;77.57;96831.91;109973;1248;68657;-66
2022/01/30 04:34:59;;;;;;;16.10;9.00;;;;;;;-3.79;77.38;96822.73;110494;1247;59706;-67
2022/01/30 04:38:18;;;;;;;10.30;7.20;;;;;;;-3.78;77.47;96814.36;109798;1253;59817;-66
2022/01/30 04:41:38;;;;;;;11.70;8.20;;;;;;;-3.77;77.53;96803.09;109445;1257;69632;-66
2022/01/30 04:58:16;;;;;;;17.40;9.30;;;;;;;-3.73;77.75;96783.91;110370;1246;69765;-67
2022/01/30 05:01:35;;;;;;;19.50;9.70;;;;;;;-3.70;77.69;96779.23;110252;1247;68630;-66
2022/01/30 05:04:21;;;;;;;14.30;9.20;;;;;;;-3.68;77.67;96779.85;110024;1247;68592;-66
2022/01/30 05:07:36;;;;;;;18.40;10.20;;;;;;;-3.63;77.53;96767.30;110306;1246;59699;-66
2022/01/30 05:10:19;;;;;;;16.20;9.50;;;;;;;-3.61;77.73;96767.56;109687;1254;59742;-65
2022/01/30 05:13:01;;;;;;;18.50;12.70;;;;;;;-3.57;77.97;96764.06;110409;1246;72060;-65
2022/01/30 05:15:46;;;;;;;19.60;12.70;;;;;;;-3.53;77.87;96763.78;110011;1247;69355;-65
2022/01/30 05:18:28;;;;;;;18.40;12.90;;;;;;;-3.51;77.88;96759.48;110129;1247;68792;-66
2022/01/30 05:21:18;;;;;;;17.70;12.30;;;;;;;-3.48;77.75;96760.56;110220;1245;59739;-65
2022/01/30 05:23:54;;;;;;;20.60;13.30;;;;;;;-3.45;78.10;96760.52;110136;1246;59695;-66
2022/01/30 05:26:51;;;;;;;17.80;11.10;;;;;;;-3.40;78.08;96759.86;110436;1245;70771;-66
2022/01/30 05:29:30;;;;;;;19.10;11.20;;;;;;;-3.36;78.05;96754.29;110218;1247;67819;-66
2022/01/30 05:32:20;;;;;;;16.10;9.90;;;;;;;-3.32;77.75;96750.08;110046;1247;68772;-65
2022/01/30 05:35:15;;;;;;;15.10;8.90;;;;;;;-3.30;78.11;96747.64;110150;1245;59756;-66
2022/01/30 05:38:05;;;;;;;13.80;10.00;;;;;;;-3.26;78.21;96747.38;109948;1247;59714;-66
2022/01/30 05:40:54;;;;;;;16.00;10.20;;;;;;;-3.25;77.92;96748.66;110317;1246;70727;-65
2022/01/30 05:44:08;;;;;;;15.50;9.50;;;;;;;-3.23;78.25;96741.50;109786;1253;67720;-66
2022/01/30 05:46:56;;;;;;;15.90;10.10;;;;;;;-3.23;78.89;96733.47;110219;1247;68993;-65
2022/01/30 05:49:48;;;;;;;14.30;10.10;;;;;;;-3.20;78.85;96728.25;110127;1247;59739;-65
2022/01/30 05:52:52;;;;;;;13.20;7.70;;;;;;;-3.18;78.73;96725.49;110504;1244;59583;-65
2022/01/30 05:55:50;;;;;;;13.10;9.20;;;;;;;-3.15;78.86;96727.27;109972;1244;70869;-66
2022/01/30 05:58:20;;;;;;;15.80;10.30;;;;;;;-3.12;79.17;96718.14;110098;1247;68409;-65
2022/01/30 06:01:10;;;;;;;10.30;6.90;;;;;;;-3.07;78.98;96716.30;109917;1245;68470;-67
2022/01/30 06:03:40;;;;;;;10.50;7.50;;;;;;;-3.03;78.91;96722.30;110306;1244;59717;-68
2022/01/30 06:06:10;;;;;;;7.50;5.20;;;;;;;-2.99;78.91;96715.21;110304;1247;59622;-68
2022/01/30 06:08:46;;;;;;;12.90;8.90;;;;;;;-2.96;78.80;96712.72;110231;1244;72161;-65
2022/01/30 06:11:16;;;;;;;15.80;10.00;;;;;;;-2.94;78.92;96714.05;110319;1245;67868;-65
2022/01/30 06:13:46;;;;;;;15.80;11.00;;;;;;;-2.93;79.21;96707.83;110291;1244;70007;-65
2022/01/30 06:16:18;;;;;;;11.20;7.80;;;;;;;-2.91;78.94;96706.76;110077;1244;59739;-66
2022/01/30 06:18:54;;;;;;;14.40;9.10;;;;;;;-2.87;79.14;96709.72;110141;1244;59605;-65
2022/01/30 06:22:04;;;;;;;18.60;11.50;;;;;;;-2.84;78.67;96705.33;109809;1250;70732;-66
2022/01/30 06:24:53;;;;;;;26.70;16.50;;;;;;;-2.82;78.70;96707.86;109768;1250;67967;-65
2022/01/30 06:27:41;;;;;;;25.40;16.20;;;;;;;-2.81;78.76;96707.33;110004;1244;68799;-65
2022/01/30 06:30:30;;;;;;;30.20;19.70;;;;;;;-2.82;78.40;96702.05;110435;1244;59747;-65
2022/01/30 06:33:35;;;;;;;33.40;21.80;;;;;;;-2.83;78.68;96700.02;109658;1250;59748;-66
2022/01/30 06:36:21;;;;;;;45.20;26.40;;;;;;;-2.83;78.84;96696.80;109816;1247;71125;-65
2022/01/30 06:39:04;;;;;;;42.90;24.40;;;;;;;-2.86;79.12;96699.11;110626;1244;68588;-65
2022/01/30 06:42:09;;;;;;;53.60;29.70;;;;;;;-2.85;79.08;96679.30;110548;1244;69757;-66
2022/01/30 06:44:50;;;;;;;42.80;26.90;;;;;;;-2.88;79.45;96685.69;110064;1247;59757;-66
2022/01/30 06:47:42;;;;;;;47.50;27.60;;;;;;;-2.88;79.16;96689.62;110261;1244;59616;-68
2022/01/30 06:50:30;;;;;;;45.20;31.60;;;;;;;-2.88;79.48;96680.42;110427;1244;72032;-68
2022/01/30 06:53:28;;;;;;;47.90;29.40;;;;;;;-2.92;80.06;96684.61;109936;1245;69038;-68
2022/01/30 06:56:23;;;;;;;33.90;21.00;;;;;;;-2.91;79.80;96676.08;110232;1246;69393;-67
2022/01/30 06:59:24;;;;;;;50.50;29.80;;;;;;;-2.87;79.81;96668.61;109785;1248;60054;-66
2022/01/30 07:02:11;;;;;;;37.30;23.80;;;;;;;-2.88;80.39;96673.92;109493;1247;694815;-66
2022/01/30 07:05:06;;;;;;;109.10;49.40;;;;;;;-2.87;80.90;96663.15;110209;1247;71498;-67
2022/01/30 07:07:48;;;;;;;67.80;35.80;;;;;;;-2.84;80.43;96663.58;110198;1247;67820;-66
2022/01/30 07:10:17;;;;;;;32.50;21.90;;;;;;;-2.80;80.21;96653.91;110327;1246;70097;-66
2022/01/30 07:12:46;;;;;;;47.40;26.80;;;;;;;-2.76;80.33;96658.57;110135;1247;59689;-66
2022/01/30 07:15:15;;;;;;;44.90;28.20;;;;;;;-2.72;80.45;96659.29;110179;1247;59830;-66
2022/01/30 07:17:44;;;;;;;55.20;33.20;;;;;;;-2.69;81.31;96656.29;110275;1247;72231;-66
2022/01/30 07:20:13;;;;;;;35.50;22.90;;;;;;;-2.65;80.57;96649.14;110245;1247;68615;-64
2022/01/30 07:22:42;;;;;;;44.10;30.20;;;;;;;-2.61;80.40;96649.86;109948;1250;69251;-68
2022/01/30 07:25:12;;;;;;;33.70;21.90;;;;;;;-2.57;80.45;96634.55;110166;1247;59694;-66
2022/01/30 07:27:42;;;;;;;44.90;29.70;;;;;;;-2.52;80.43;96633.03;110234;1247;59666;-66
2022/01/30 07:30:12;;;;;;;30.00;20.60;;;;;;;-2.50;80.45;96636.21;110177;1247;72273;-66
2022/01/30 07:32:45;;;;;;;42.40;25.40;;;;;;;-2.46;80.16;96633.50;110130;1247;68459;-65
2022/01/30 07:35:21;;;;;;;31.20;20.40;;;;;;;-2.42;80.24;96622.13;110185;1247;69408;-65
2022/01/30 07:37:56;;;;;;;41.30;28.30;;;;;;;-2.40;80.77;96619.52;110220;1246;60150;-66
2022/01/30 07:40:26;;;;;;;50.90;36.10;;;;;;;-2.39;80.71;96624.41;110120;1247;59710;-66
2022/01/30 07:42:55;;;;;;;45.40;28.70;;;;;;;-2.35;80.45;96624.27;110012;1247;69596;-66
2022/01/30 07:45:26;;;;;;;49.10;29.00;;;;;;;-2.31;80.38;96619.19;109951;1248;69098;-66
2022/01/30 07:47:55;;;;;;;33.50;21.10;;;;;;;-2.27;80.01;96616.99;110114;1247;69227;-66
2022/01/30 07:50:25;;;;;;;33.50;22.40;;;;;;;-2.21;80.09;96616.77;109885;1247;59746;-66
2022/01/30 07:52:54;;;;;;;48.20;31.30;;;;;;;-2.15;80.46;96626.98;110134;1247;59734;-66
2022/01/30 07:55:23;;;;;;;27.50;18.40;;;;;;;-2.10;80.02;96620.99;110330;1246;72395;-65
2022/01/30 07:57:52;;;;;;;27.90;18.10;;;;;;;-2.05;80.03;96618.95;110263;1246;69288;-68
2022/01/30 08:00:21;;;;;;;18.60;13.50;;;;;;;-1.99;79.15;96623.35;110242;1247;69390;-65
2022/01/30 08:02:50;;;;;;;16.70;10.30;;;;;;;-1.91;78.81;96624.96;110368;1246;59726;-66
2022/01/30 08:05:20;;;;;;;20.70;11.80;;;;;;;-1.85;78.70;96629.83;110260;1247;59684;-66
2022/01/30 08:07:49;;;;;;;18.60;10.70;;;;;;;-1.78;78.32;96621.41;110278;1247;71912;-65
2022/01/30 08:10:18;;;;;;;15.50;10.70;;;;;;;-1.69;77.96;96624.50;110334;1246;68550;-65
2022/01/30 08:12:48;;;;;;;18.40;11.70;;;;;;;-1.62;77.77;96616.20;110243;1246;70102;-68
2022/01/30 08:15:17;;;;;;;15.40;9.20;;;;;;;-1.56;77.49;96625.70;110323;1246;59757;-66
2022/01/30 08:17:48;;;;;;;15.50;10.40;;;;;;;-1.47;77.20;96627.27;110308;1247;59709;-66
2022/01/30 08:20:18;;;;;;;13.70;9.60;;;;;;;-1.38;76.86;96622.30;110147;1247;70792;-67
2022/01/30 08:22:49;;;;;;;11.90;9.00;;;;;;;-1.29;76.73;96624.72;110308;1247;67564;-67
2022/01/30 08:25:21;;;;;;;15.90;10.50;;;;;;;-1.21;76.27;96618.59;110410;1244;69378;-67
2022/01/30 08:27:50;;;;;;;17.10;12.20;;;;;;;-1.11;76.01;96612.73;110423;1245;59700;-67
2022/01/30 08:30:20;;;;;;;19.40;12.70;;;;;;;-1.04;75.69;96603.21;110210;1246;59682;-67
2022/01/30 08:32:50;;;;;;;20.80;14.00;;;;;;;-1.01;75.50;96605.67;110456;1244;71937;-66
2022/01/30 08:35:20;;;;;;;33.50;19.90;;;;;;;-0.96;75.37;96607.02;110390;1244;69173;-65
2022/01/30 08:37:50;;;;;;;23.40;15.40;;;;;;;-0.93;75.29;96601.23;110421;1244;69855;-66
2022/01/30 08:40:23;;;;;;;20.80;14.10;;;;;;;-0.91;75.02;96590.39;110326;1244;59720;-66
2022/01/30 08:42:52;;;;;;;22.90;14.50;;;;;;;-0.88;74.99;96583.77;110350;1245;59691;-65
2022/01/30 08:45:22;;;;;;;45.70;25.80;;;;;;;-0.84;74.91;96579.11;110312;1244;71359;-68
2022/01/30 08:47:51;;;;;;;37.50;21.00;;;;;;;-0.83;74.87;96577.39;110403;1244;69162;-66
2022/01/30 08:50:22;;;;;;;30.50;22.00;;;;;;;-0.83;74.89;96571.40;110131;1247;69455;-65
2022/01/30 08:52:52;;;;;;;23.80;16.80;;;;;;;-0.88;75.00;96571.42;110131;1247;59735;-67
2022/01/30 08:55:21;;;;;;;20.80;14.20;;;;;;;-0.87;74.85;96563.04;110434;1245;59716;-69
2022/01/30 08:57:50;;;;;;;19.90;14.40;;;;;;;-0.81;74.67;96561.05;110327;1246;71742;-66
2022/01/30 09:00:19;;;;;;;15.40;12.00;;;;;;;-0.73;74.33;96553.73;110407;1244;67824;-67
2022/01/30 09:02:49;;;;;;;23.70;15.70;;;;;;;-0.68;74.21;96550.23;110569;1244;70005;-66
2022/01/30 09:05:18;;;;;;;19.00;13.20;;;;;;;-0.62;74.15;96547.44;110546;1244;59655;-66
2022/01/30 09:07:47;;;;;;;19.60;13.50;;;;;;;-0.61;74.05;96543.96;110236;1246;59716;-66
2022/01/30 09:10:15;;;;;;;16.30;13.60;;;;;;;-0.57;74.07;96545.52;110346;1247;71955;-65
2022/01/30 09:12:45;;;;;;;14.40;12.20;;;;;;;-0.53;73.58;96546.20;110452;1247;69010;-65
2022/01/30 09:15:16;;;;;;;12.30;8.00;;;;;;;-0.42;73.34;96547.47;110328;1247;69875;-65
2022/01/30 09:17:45;;;;;;;13.70;9.60;;;;;;;-0.34;73.29;96539.06;110529;1247;59754;-66
2022/01/30 09:20:14;;;;;;;13.70;10.90;;;;;;;-0.30;73.34;96532.36;110121;1247;59654;-66
2022/01/30 09:22:43;;;;;;;12.90;8.30;;;;;;;-0.26;73.40;96531.68;110089;1247;71551;-64
2022/01/30 09:25:12;;;;;;;13.20;9.90;;;;;;;-0.24;73.60;96525.60;110088;1247;68605;-65
2022/01/30 09:27:41;;;;;;;12.30;9.60;;;;;;;-0.21;73.67;96514.32;110170;1244;70037;-65
2022/01/30 09:30:11;;;;;;;16.20;10.30;;;;;;;-0.17;73.67;96514.69;110114;1247;59717;-66
2022/01/30 09:32:43;;;;;;;13.20;9.90;;;;;;;-0.16;73.79;96505.21;110307;1247;59637;-66
2022/01/30 09:35:12;;;;;;;;;;;;;;;-0.15;73.90;96497.98;110059;1247;72251;-66
2022/01/30 09:37:41;;;;;;;12.50;8.80;;;;;;;-0.16;74.13;96511.75;110316;1247;68410;-65
2022/01/30 09:40:10;;;;;;;12.40;10.00;;;;;;;-0.16;74.21;96504.54;110071;1247;69422;-65
2022/01/30 09:42:45;;;;;;;12.40;8.30;;;;;;;-0.14;74.12;96509.58;110006;1247;59707;-65
2022/01/30 09:45:16;;;;;;;11.60;7.60;;;;;;;-0.12;74.13;96514.13;110248;1247;59699;-68
2022/01/30 09:47:45;;;;;;;;;;;;;;;-0.08;74.39;96524.05;110338;1244;71330;-68
2022/01/30 09:50:17;;;;;;;14.50;12.00;;;;;;;-0.04;74.67;96514.79;110239;1247;68437;-65
2022/01/30 09:52:46;;;;;;;14.60;8.60;;;;;;;-0.00;74.49;96506.55;110113;1247;69436;-67
2022/01/30 09:55:15;;;;;;;15.00;10.60;;;;;;;0.05;74.66;96513.36;110416;1246;59716;-65
2022/01/30 09:57:46;;;;;;;14.80;9.60;;;;;;;0.10;74.55;96504.23;110211;1246;59697;-66
2022/01/30 10:00:17;;;;;;;15.10;9.80;;;;;;;0.14;74.52;96495.44;110148;1247;71562;-65
2022/01/30 10:02:45;;;;;;;13.50;9.00;;;;;;;0.19;74.45;96485.29;110136;1246;68417;-65
2022/01/30 10:05:16;;;;;;;12.60;9.60;;;;;;;0.24;74.39;96477.16;110115;1247;69248;-66
2022/01/30 10:07:51;;;;;;;15.10;10.70;;;;;;;0.29;74.57;96475.90;110038;1247;59754;-66
2022/01/30 10:10:24;;;;;;;17.90;11.40;;;;;;;0.36;74.56;96472.83;110235;1247;59630;-66
2022/01/30 10:13:12;;;;;;;11.70;8.80;;;;;;;0.43;74.44;96465.98;110161;1246;71558;-67
2022/01/30 10:15:49;;;;;;;10.90;7.90;;;;;;;0.51;74.32;96475.05;110107;1246;68930;-67
2022/01/30 10:18:20;;;;;;;13.90;10.40;;;;;;;0.59;74.41;96472.81;110458;1247;68028;-67
2022/01/30 10:20:49;;;;;;;17.30;13.10;;;;;;;0.66;74.26;96467.45;110292;1247;59715;-68
2022/01/30 10:23:18;;;;;;;13.40;10.40;;;;;;;0.70;74.53;96463.68;110210;1247;59735;-65
2022/01/30 10:25:47;;;;;;;15.10;11.20;;;;;;;0.74;74.64;96459.73;110111;1247;70736;-66
2022/01/30 10:28:19;;;;;;;15.60;11.20;;;;;;;0.74;74.18;96453.70;110217;1245;69314;-66
2022/01/30 10:30:51;;;;;;;16.70;11.30;;;;;;;0.78;74.37;96454.21;110251;1247;68429;-66
2022/01/30 10:33:23;;;;;;;21.30;15.70;;;;;;;0.85;74.55;96451.45;110284;1246;59696;-66
2022/01/30 10:35:53;;;;;;;19.60;12.90;;;;;;;0.91;74.44;96452.34;110390;1245;59686;-66
2022/01/30 10:38:24;;;;;;;;;;;;;;;0.92;74.37;96450.05;110302;1246;72128;-68
2022/01/30 10:41:13;;;;;;;15.60;12.50;;;;;;;0.92;74.75;96454.00;110256;1247;67637;-65
2022/01/30 10:44:04;;;;;;;17.90;11.70;;;;;;;0.85;76.01;96452.98;110161;1247;69640;-68
2022/01/30 10:46:40;;;;;;;13.60;8.60;;;;;;;0.69;77.90;96453.60;110391;1246;59686;-65
2022/01/30 10:49:11;;;;;;;14.80;10.10;;;;;;;0.62;78.13;96444.52;110165;1246;59676;-66
2022/01/30 10:51:54;;;;;;;20.10;14.00;;;;;;;0.60;77.97;96439.14;110450;1244;69828;-66
2022/01/30 10:54:29;;;;;;;21.50;14.40;;;;;;;0.53;78.21;96425.23;110561;1244;68596;-65
2022/01/30 10:57:07;;;;;;;18.80;13.10;;;;;;;0.42;78.73;96419.43;110017;1247;70003;-66
2022/01/30 10:59:42;;;;;;;18.50;13.20;;;;;;;0.43;79.05;96418.03;110064;1247;59752;-68
2022/01/30 11:02:15;;;;;;;16.80;11.10;;;;;;;0.41;79.21;96409.35;110242;1247;59708;-67
2022/01/30 11:04:47;;;;;;;12.60;8.90;;;;;;;0.43;78.92;96400.17;110242;1247;72145;-67
2022/01/30 11:07:21;;;;;;;17.90;13.00;;;;;;;0.50;78.84;96393.83;109995;1247;68604;-67
2022/01/30 11:10:23;;;;;;;13.70;9.20;;;;;;;0.58;78.70;96377.14;110232;1247;68469;-65
2022/01/30 11:12:57;;;;;;;13.60;9.60;;;;;;;0.77;78.54;96374.67;110498;1246;59620;-67
2022/01/30 11:18:00;;;;;;;25.00;16.90;;;;;;;1.21;77.55;96358.69;110210;1247;71102;-68
2022/01/30 11:20:31;;;;;;;24.20;15.10;;;;;;;1.41;77.88;96366.20;110240;1247;68793;-68
2022/01/30 11:23:09;;;;;;;20.50;12.70;;;;;;;1.69;77.31;96352.86;110205;1247;70257;-67
2022/01/30 11:25:38;;;;;;;24.60;16.80;;;;;;;1.99;76.48;96346.75;110240;1247;60158;-67
2022/01/30 11:28:15;;;;;;;18.10;12.30;;;;;;;2.50;76.61;96354.50;110395;1247;59732;-66
2022/01/30 11:30:50;;;;;;;19.20;13.80;;;;;;;3.08;74.89;96354.71;110316;1246;71461;-67
2022/01/30 11:33:19;;;;;;;12.90;10.80;;;;;;;3.28;72.14;96348.69;110289;1246;69001;-65
2022/01/30 11:35:49;;;;;;;17.00;14.10;;;;;;;3.29;72.11;96335.41;110058;1247;69220;-67
2022/01/30 11:38:18;;;;;;;21.60;15.10;;;;;;;3.32;70.99;96328.34;110261;1247;59634;-65
2022/01/30 11:41:15;;;;;;;17.80;12.90;;;;;;;3.19;70.20;96329.14;110213;1247;59640;-66
2022/01/30 11:44:19;;;;;;;20.60;15.10;;;;;;;3.14;70.47;96333.90;110202;1247;70725;-66
2022/01/30 11:46:52;;;;;;;19.80;13.40;;;;;;;3.40;69.61;96326.80;110207;1245;67814;-67
2022/01/30 11:49:21;;;;;;;20.60;14.00;;;;;;;3.53;68.20;96321.17;110168;1247;69393;-66
2022/01/30 11:51:52;;;;;;;18.70;14.00;;;;;;;3.35;69.30;96316.08;110101;1247;59770;-66
2022/01/30 11:55:01;;;;;;;18.70;13.80;;;;;;;3.13;68.83;96313.10;110282;1245;59637;-65
2022/01/30 11:57:32;;;;;;;29.70;19.80;;;;;;;2.94;69.85;96314.09;110214;1244;71407;-66
2022/01/30 12:00:01;;;;;;;31.30;21.50;;;;;;;2.70;70.43;96305.19;110490;1244;68469;-67
2022/01/30 12:02:39;;;;;;;25.60;20.60;;;;;;;2.45;71.04;96302.66;110261;1245;69549;-66
2022/01/30 12:05:10;;;;;;;22.30;16.90;;;;;;;2.33;71.56;96299.29;110509;1244;59684;-66
2022/01/30 12:07:45;;;;;;;28.40;19.60;;;;;;;2.21;71.50;96298.73;110523;1244;59699;-66
2022/01/30 12:10:24;;;;;;;27.20;18.50;;;;;;;2.13;71.66;96295.10;110601;1244;71763;-66
2022/01/30 12:13:03;;;;;;;22.90;18.60;;;;;;;2.10;72.03;96290.11;110498;1245;68999;-66
2022/01/30 12:15:44;;;;;;;25.00;17.20;;;;;;;2.15;72.26;96292.91;110409;1244;69251;-65
2022/01/30 12:18:15;;;;;;;21.50;16.80;;;;;;;2.25;71.36;96293.55;110588;1243;59648;-66
2022/01/30 12:21:11;;;;;;;21.20;14.80;;;;;;;2.29;70.98;96289.66;110386;1244;59697;-65
2022/01/30 12:23:43;;;;;;;22.10;16.00;;;;;;;2.31;70.36;96290.42;110591;1244;71181;-68
2022/01/30 12:26:18;;;;;;;30.70;21.10;;;;;;;2.31;70.65;96291.27;110562;1244;68685;-67
2022/01/30 12:28:52;;;;;;;19.00;14.70;;;;;;;2.34;70.87;96287.36;110503;1244;69317;-66
2022/01/30 12:31:34;;;;;;;25.60;18.30;;;;;;;2.38;70.83;96287.78;110432;1245;60069;-67
2022/01/30 12:34:07;;;;;;;24.00;17.30;;;;;;;2.41;70.22;96285.90;110497;1244;59660;-66
2022/01/30 12:36:41;;;;;;;22.00;16.60;;;;;;;2.49;70.12;96287.14;110465;1244;71346;-66